sensor_id;sensor_type;location;lat;lon;timestamp;pressure;altitude;pressure_sealevel;temperature;humidity
27840;BME280;15207;42.182;24.308;2022-10-20T00:00:00;99507.09;;;15.09;64.67
27840;BME280;15207;42.182;24.308;2022-10-20T00:02:26;99500.78;;;15.18;64.37
27840;BME280;15207;42.182;24.308;2022-10-20T00:04:51;99508.31;;;15.24;64.60
27840;BME280;15207;42.182;24.308;2022-10-20T00:07:17;99508.41;;;15.32;64.91
27840;BME280;15207;42.182;24.308;2022-10-20T00:09:42;99510.53;;;15.39;64.88
27840;BME280;15207;42.182;24.308;2022-10-20T00:12:08;99505.84;;;15.41;64.41
27840;BME280;15207;42.182;24.308;2022-10-20T00:14:33;99499.56;;;15.50;63.49
27840;BME280;15207;42.182;24.308;2022-10-20T00:16:59;99505.03;;;15.58;64.00
27840;BME280;15207;42.182;24.308;2022-10-20T00:19:26;99492.91;;;15.72;63.58
27840;BME280;15207;42.182;24.308;2022-10-20T00:21:52;99494.13;;;15.78;63.81
27840;BME280;15207;42.182;24.308;2022-10-20T00:24:18;99489.31;;;15.82;63.51
27840;BME280;15207;42.182;24.308;2022-10-20T00:26:46;99480.59;;;15.88;63.35
27840;BME280;15207;42.182;24.308;2022-10-20T00:29:12;99484.81;;;16.00;63.70
27840;BME280;15207;42.182;24.308;2022-10-20T00:31:37;99480.66;;;16.06;63.35
27840;BME280;15207;42.182;24.308;2022-10-20T00:34:03;99476.72;;;16.19;63.06
27840;BME280;15207;42.182;24.308;2022-10-20T00:36:29;99488.09;;;16.22;62.59
27840;BME280;15207;42.182;24.308;2022-10-20T00:38:59;99476.56;;;16.20;62.23
27840;BME280;15207;42.182;24.308;2022-10-20T00:41:25;99481.97;;;16.20;62.30
27840;BME280;15207;42.182;24.308;2022-10-20T00:43:56;99488.75;;;16.24;62.64
27840;BME280;15207;42.182;24.308;2022-10-20T00:46:36;99497.94;;;16.13;62.86
27840;BME280;15207;42.182;24.308;2022-10-20T00:49:15;99496.56;;;16.09;63.69
27840;BME280;15207;42.182;24.308;2022-10-20T00:51:43;99500.25;;;16.08;63.86
27840;BME280;15207;42.182;24.308;2022-10-20T00:54:11;99499.16;;;16.01;64.61
27840;BME280;15207;42.182;24.308;2022-10-20T00:56:41;99504.44;;;16.03;64.49
27840;BME280;15207;42.182;24.308;2022-10-20T00:59:08;99509.50;;;16.06;64.49
27840;BME280;15207;42.182;24.308;2022-10-20T01:01:37;99511.69;;;16.20;64.02
27840;BME280;15207;42.182;24.308;2022-10-20T01:04:04;99507.81;;;16.23;64.17
27840;BME280;15207;42.182;24.308;2022-10-20T01:06:29;99507.19;;;16.11;64.73
27840;BME280;15207;42.182;24.308;2022-10-20T01:08:55;99514.97;;;15.96;65.02
27840;BME280;15207;42.182;24.308;2022-10-20T01:19:44;99520.84;;;15.53;67.82
27840;BME280;15207;42.182;24.308;2022-10-20T01:25:15;99509.41;;;15.41;68.19
27840;BME280;15207;42.182;24.308;2022-10-20T01:27:42;99515.50;;;15.33;68.53
27840;BME280;15207;42.182;24.308;2022-10-20T01:30:14;99510.16;;;15.24;68.81
27840;BME280;15207;42.182;24.308;2022-10-20T01:43:35;99526.97;;;14.88;70.42
27840;BME280;15207;42.182;24.308;2022-10-20T01:46:02;99538.47;;;14.80;71.04
27840;BME280;15207;42.182;24.308;2022-10-20T01:48:32;99532.50;;;14.66;71.70
27840;BME280;15207;42.182;24.308;2022-10-20T01:50:59;99539.03;;;14.64;71.59
27840;BME280;15207;42.182;24.308;2022-10-20T01:53:25;99538.59;;;14.68;71.54
27840;BME280;15207;42.182;24.308;2022-10-20T01:55:52;99537.59;;;14.70;71.46
27840;BME280;15207;42.182;24.308;2022-10-20T02:04:28;99534.47;;;14.25;73.84
27840;BME280;15207;42.182;24.308;2022-10-20T02:07:10;99533.88;;;14.11;74.40
27840;BME280;15207;42.182;24.308;2022-10-20T02:09:47;99537.13;;;14.05;75.15
27840;BME280;15207;42.182;24.308;2022-10-20T02:12:27;99541.66;;;14.05;74.73
27840;BME280;15207;42.182;24.308;2022-10-20T02:14:53;99541.66;;;14.05;74.97
27840;BME280;15207;42.182;24.308;2022-10-20T02:17:20;99540.09;;;14.02;74.78
27840;BME280;15207;42.182;24.308;2022-10-20T02:19:48;99551.44;;;13.96;74.79
27840;BME280;15207;42.182;24.308;2022-10-20T02:22:15;99546.56;;;13.89;75.47
27840;BME280;15207;42.182;24.308;2022-10-20T02:24:42;99567.50;;;13.76;76.42
27840;BME280;15207;42.182;24.308;2022-10-20T02:27:12;99562.13;;;13.76;76.28
27840;BME280;15207;42.182;24.308;2022-10-20T02:29:43;99560.16;;;13.78;76.11
27840;BME280;15207;42.182;24.308;2022-10-20T02:32:11;99568.41;;;13.86;75.68
27840;BME280;15207;42.182;24.308;2022-10-20T02:34:37;99566.41;;;13.88;75.87
27840;BME280;15207;42.182;24.308;2022-10-20T02:37:03;99566.53;;;13.77;76.12
27840;BME280;15207;42.182;24.308;2022-10-20T02:39:29;99569.22;;;13.77;76.82
27840;BME280;15207;42.182;24.308;2022-10-20T02:41:54;99576.44;;;13.77;76.50
27840;BME280;15207;42.182;24.308;2022-10-20T02:44:20;99574.41;;;13.69;77.31
27840;BME280;15207;42.182;24.308;2022-10-20T02:46:47;99580.66;;;13.69;77.20
27840;BME280;15207;42.182;24.308;2022-10-20T02:49:12;99578.03;;;13.58;77.80
27840;BME280;15207;42.182;24.308;2022-10-20T02:51:38;99581.50;;;13.70;78.14
27840;BME280;15207;42.182;24.308;2022-10-20T02:54:03;99593.56;;;13.75;77.97
27840;BME280;15207;42.182;24.308;2022-10-20T02:56:29;99603.09;;;13.80;78.15
27840;BME280;15207;42.182;24.308;2022-10-20T02:58:55;99602.66;;;13.84;77.79
27840;BME280;15207;42.182;24.308;2022-10-20T03:01:20;99599.41;;;13.81;77.98
27840;BME280;15207;42.182;24.308;2022-10-20T03:03:46;99603.09;;;13.80;78.17
27840;BME280;15207;42.182;24.308;2022-10-20T03:06:14;99600.97;;;13.83;78.01
27840;BME280;15207;42.182;24.308;2022-10-20T03:08:41;99607.34;;;13.82;78.55
27840;BME280;15207;42.182;24.308;2022-10-20T03:11:07;99607.34;;;13.82;78.60
27840;BME280;15207;42.182;24.308;2022-10-20T03:13:33;99614.69;;;13.80;78.72
27840;BME280;15207;42.182;24.308;2022-10-20T03:15:58;99612.72;;;13.82;78.80
27840;BME280;15207;42.182;24.308;2022-10-20T03:18:24;99611.28;;;13.78;78.63
27840;BME280;15207;42.182;24.308;2022-10-20T03:20:51;99610.56;;;13.76;79.05
27840;BME280;15207;42.182;24.308;2022-10-20T03:23:17;99616.09;;;13.74;78.87
27840;BME280;15207;42.182;24.308;2022-10-20T03:25:42;99613.94;;;13.68;79.10
27840;BME280;15207;42.182;24.308;2022-10-20T03:28:08;99618.78;;;13.74;78.68
27840;BME280;15207;42.182;24.308;2022-10-20T03:30:34;99623.25;;;13.64;78.65
27840;BME280;15207;42.182;24.308;2022-10-20T03:32:59;99618.13;;;13.61;78.75
27840;BME280;15207;42.182;24.308;2022-10-20T03:35:25;99629.03;;;13.59;78.33
27840;BME280;15207;42.182;24.308;2022-10-20T03:37:50;99628.56;;;13.54;78.89
27840;BME280;15207;42.182;24.308;2022-10-20T03:40:16;99628.91;;;13.61;78.45
27840;BME280;15207;42.182;24.308;2022-10-20T03:42:42;99638.22;;;13.57;78.40
27840;BME280;15207;42.182;24.308;2022-10-20T03:45:08;99642.91;;;13.55;78.12
27840;BME280;15207;42.182;24.308;2022-10-20T03:47:34;99643.78;;;13.44;78.73
27840;BME280;15207;42.182;24.308;2022-10-20T03:50:00;99645.56;;;13.33;79.23
27840;BME280;15207;42.182;24.308;2022-10-20T03:52:25;99646.47;;;13.22;79.52
27840;BME280;15207;42.182;24.308;2022-10-20T03:54:51;99637.47;;;13.12;80.97
27840;BME280;15207;42.182;24.308;2022-10-20T03:57:18;99630.69;;;12.96;80.37
27840;BME280;15207;42.182;24.308;2022-10-20T03:59:43;99649.91;;;12.92;81.38
27840;BME280;15207;42.182;24.308;2022-10-20T04:02:22;99644.78;;;12.89;81.02
27840;BME280;15207;42.182;24.308;2022-10-20T04:04:51;99637.59;;;12.89;80.73
27840;BME280;15207;42.182;24.308;2022-10-20T04:07:17;99630.03;;;12.83;81.05
27840;BME280;15207;42.182;24.308;2022-10-20T04:09:42;99638.69;;;12.87;80.41
27840;BME280;15207;42.182;24.308;2022-10-20T04:12:08;99635.25;;;12.85;80.65
27840;BME280;15207;42.182;24.308;2022-10-20T04:14:33;99627.34;;;12.83;80.80
27840;BME280;15207;42.182;24.308;2022-10-20T04:16:59;99640.63;;;12.85;81.21
27840;BME280;15207;42.182;24.308;2022-10-20T04:19:24;99638.81;;;12.85;81.49
27840;BME280;15207;42.182;24.308;2022-10-20T04:21:50;99638.19;;;12.93;80.88
27840;BME280;15207;42.182;24.308;2022-10-20T04:24:16;99643.66;;;12.91;81.51
27840;BME280;15207;42.182;24.308;2022-10-20T04:26:41;99638.06;;;12.94;81.10
27840;BME280;15207;42.182;24.308;2022-10-20T04:29:07;99644.69;;;13.12;80.70
27840;BME280;15207;42.182;24.308;2022-10-20T04:31:32;99656.75;;;13.17;80.14
27840;BME280;15207;42.182;24.308;2022-10-20T04:33:58;99668.94;;;13.33;78.67
27840;BME280;15207;42.182;24.308;2022-10-20T04:36:24;99668.97;;;13.21;78.29
27840;BME280;15207;42.182;24.308;2022-10-20T04:38:49;99662.53;;;13.13;78.20
27840;BME280;15207;42.182;24.308;2022-10-20T04:41:15;99668.16;;;13.09;78.33
27840;BME280;15207;42.182;24.308;2022-10-20T04:43:40;99664.66;;;12.98;78.90
27840;BME280;15207;42.182;24.308;2022-10-20T04:46:06;99670.66;;;13.01;78.30
27840;BME280;15207;42.182;24.308;2022-10-20T04:48:32;99661.25;;;12.95;78.33
27840;BME280;15207;42.182;24.308;2022-10-20T04:51:08;99674.47;;;12.87;78.54
27840;BME280;15207;42.182;24.308;2022-10-20T04:53:34;99673.75;;;12.85;78.64
27840;BME280;15207;42.182;24.308;2022-10-20T04:56:00;99685.22;;;12.87;78.92
27840;BME280;15207;42.182;24.308;2022-10-20T04:58:26;99694.50;;;12.94;78.91
27840;BME280;15207;42.182;24.308;2022-10-20T05:00:52;99703.78;;;12.90;79.24
27840;BME280;15207;42.182;24.308;2022-10-20T05:03:17;99713.69;;;12.90;78.91
27840;BME280;15207;42.182;24.308;2022-10-20T05:05:46;99718.94;;;12.91;79.01
27840;BME280;15207;42.182;24.308;2022-10-20T05:08:12;99720.63;;;12.92;78.55
27840;BME280;15207;42.182;24.308;2022-10-20T05:10:38;99724.66;;;12.98;78.16
27840;BME280;15207;42.182;24.308;2022-10-20T05:13:03;99725.38;;;13.00;78.65
27840;BME280;15207;42.182;24.308;2022-10-20T05:15:29;99721.50;;;12.93;78.23
27840;BME280;15207;42.182;24.308;2022-10-20T05:17:54;99717.00;;;12.93;78.28
27840;BME280;15207;42.182;24.308;2022-10-20T05:20:20;99717.59;;;12.97;78.06
27840;BME280;15207;42.182;24.308;2022-10-20T05:22:45;99722.09;;;12.96;78.94
27840;BME280;15207;42.182;24.308;2022-10-20T05:25:11;99730.78;;;12.89;79.07
27840;BME280;15207;42.182;24.308;2022-10-20T05:27:36;99731.38;;;12.92;78.83
27840;BME280;15207;42.182;24.308;2022-10-20T05:30:02;99730.03;;;12.98;79.25
27840;BME280;15207;42.182;24.308;2022-10-20T05:32:28;99739.81;;;13.11;78.36
27840;BME280;15207;42.182;24.308;2022-10-20T05:34:54;99748.19;;;13.17;78.77
27840;BME280;15207;42.182;24.308;2022-10-20T05:37:19;99749.16;;;13.16;78.46
27840;BME280;15207;42.182;24.308;2022-10-20T05:39:45;99756.34;;;13.27;78.06
27840;BME280;15207;42.182;24.308;2022-10-20T05:42:10;99752.56;;;13.30;78.44
27840;BME280;15207;42.182;24.308;2022-10-20T05:44:36;99760.31;;;13.44;77.64
27840;BME280;15207;42.182;24.308;2022-10-20T05:47:02;99777.19;;;13.46;77.69
27840;BME280;15207;42.182;24.308;2022-10-20T05:49:28;99773.03;;;13.54;77.29
27840;BME280;15207;42.182;24.308;2022-10-20T05:51:53;99784.59;;;13.66;76.32
27840;BME280;15207;42.182;24.308;2022-10-20T05:54:20;99775.25;;;13.70;76.08
27840;BME280;15207;42.182;24.308;2022-10-20T05:56:46;99788.81;;;13.80;75.22
27840;BME280;15207;42.182;24.308;2022-10-20T05:59:12;99792.66;;;13.87;75.76
27840;BME280;15207;42.182;24.308;2022-10-20T06:01:38;99791.88;;;13.96;75.04
27840;BME280;15207;42.182;24.308;2022-10-20T06:04:16;99798.31;;;14.05;73.99
27840;BME280;15207;42.182;24.308;2022-10-20T06:06:42;99799.75;;;14.09;72.99
27840;BME280;15207;42.182;24.308;2022-10-20T06:09:09;99802.00;;;14.25;72.81
27840;BME280;15207;42.182;24.308;2022-10-20T06:11:36;99812.56;;;14.38;72.38
27840;BME280;15207;42.182;24.308;2022-10-20T06:14:01;99821.88;;;14.34;71.63
27840;BME280;15207;42.182;24.308;2022-10-20T06:16:27;99817.53;;;14.43;72.80
27840;BME280;15207;42.182;24.308;2022-10-20T06:18:56;99824.53;;;14.55;72.17
27840;BME280;15207;42.182;24.308;2022-10-20T06:21:25;99836.94;;;14.68;72.41
27840;BME280;15207;42.182;24.308;2022-10-20T06:23:51;99834.44;;;14.76;71.89
27840;BME280;15207;42.182;24.308;2022-10-20T06:26:19;99834.09;;;14.91;71.17
27840;BME280;15207;42.182;24.308;2022-10-20T06:28:49;99834.25;;;14.99;72.20
27840;BME280;15207;42.182;24.308;2022-10-20T06:31:22;99832.84;;;15.05;70.00
27840;BME280;15207;42.182;24.308;2022-10-20T06:33:49;99834.44;;;15.17;68.87
27840;BME280;15207;42.182;24.308;2022-10-20T06:36:15;99842.09;;;15.22;69.27
27840;BME280;15207;42.182;24.308;2022-10-20T06:38:41;99837.03;;;15.29;66.98
27840;BME280;15207;42.182;24.308;2022-10-20T06:41:10;99844.28;;;15.38;67.18
27840;BME280;15207;42.182;24.308;2022-10-20T06:43:36;99838.63;;;15.41;65.44
27840;BME280;15207;42.182;24.308;2022-10-20T06:46:05;99842.19;;;15.52;66.90
27840;BME280;15207;42.182;24.308;2022-10-20T06:48:31;99842.44;;;15.58;65.59
27840;BME280;15207;42.182;24.308;2022-10-20T06:51:02;99845.44;;;15.85;64.44
27840;BME280;15207;42.182;24.308;2022-10-20T06:53:29;99832.13;;;15.93;64.39
27840;BME280;15207;42.182;24.308;2022-10-20T06:55:56;99836.66;;;16.03;62.30
27840;BME280;15207;42.182;24.308;2022-10-20T06:58:22;99839.06;;;16.06;63.35
27840;BME280;15207;42.182;24.308;2022-10-20T07:01:18;99829.78;;;16.28;63.41
27840;BME280;15207;42.182;24.308;2022-10-20T07:03:43;99842.41;;;16.47;62.55
27840;BME280;15207;42.182;24.308;2022-10-20T07:06:13;99829.84;;;16.56;62.17
27840;BME280;15207;42.182;24.308;2022-10-20T07:08:39;99820.84;;;16.65;59.55
27840;BME280;15207;42.182;24.308;2022-10-20T07:11:06;99827.50;;;16.71;59.19
27840;BME280;15207;42.182;24.308;2022-10-20T07:13:33;99831.56;;;16.85;59.43
27840;BME280;15207;42.182;24.308;2022-10-20T07:15:59;99827.41;;;16.91;58.04
27840;BME280;15207;42.182;24.308;2022-10-20T07:18:26;99826.25;;;16.93;55.32
27840;BME280;15207;42.182;24.308;2022-10-20T07:20:58;99823.41;;;17.05;56.31
27840;BME280;15207;42.182;24.308;2022-10-20T07:23:24;99821.91;;;17.11;55.77
27840;BME280;15207;42.182;24.308;2022-10-20T07:25:50;99825.41;;;17.21;54.89
27840;BME280;15207;42.182;24.308;2022-10-20T07:28:15;99823.44;;;17.23;52.78
27840;BME280;15207;42.182;24.308;2022-10-20T07:30:41;99821.94;;;17.29;52.50
27840;BME280;15207;42.182;24.308;2022-10-20T07:33:08;99821.13;;;17.47;52.33
27840;BME280;15207;42.182;24.308;2022-10-20T07:35:34;99827.84;;;17.61;52.16
27840;BME280;15207;42.182;24.308;2022-10-20T07:38:00;99831.56;;;17.78;51.96
27840;BME280;15207;42.182;24.308;2022-10-20T07:40:26;99831.78;;;17.84;50.30
27840;BME280;15207;42.182;24.308;2022-10-20T07:42:53;99827.53;;;17.82;49.20
27840;BME280;15207;42.182;24.308;2022-10-20T07:45:19;99826.75;;;18.08;48.32
27840;BME280;15207;42.182;24.308;2022-10-20T07:47:44;99823.56;;;17.94;47.82
27840;BME280;15207;42.182;24.308;2022-10-20T07:50:10;99822.78;;;18.02;48.85
27840;BME280;15207;42.182;24.308;2022-10-20T07:52:38;99818.94;;;18.31;47.21
27840;BME280;15207;42.182;24.308;2022-10-20T07:55:04;99828.31;;;18.37;46.81
27840;BME280;15207;42.182;24.308;2022-10-20T07:57:30;99816.44;;;18.64;46.58
27840;BME280;15207;42.182;24.308;2022-10-20T07:59:56;99816.75;;;18.61;46.63
27840;BME280;15207;42.182;24.308;2022-10-20T08:02:21;99807.19;;;18.84;46.78
27840;BME280;15207;42.182;24.308;2022-10-20T08:04:49;99824.31;;;19.19;46.13
27840;BME280;15207;42.182;24.308;2022-10-20T08:07:15;99821.66;;;19.36;44.90
27840;BME280;15207;42.182;24.308;2022-10-20T08:09:41;99820.09;;;19.25;44.42
27840;BME280;15207;42.182;24.308;2022-10-20T08:12:07;99820.56;;;19.20;43.90
27840;BME280;15207;42.182;24.308;2022-10-20T08:14:33;99825.00;;;19.29;43.78
27840;BME280;15207;42.182;24.308;2022-10-20T08:17:02;99821.28;;;19.22;44.23
27840;BME280;15207;42.182;24.308;2022-10-20T08:19:28;99826.59;;;19.65;44.80
27840;BME280;15207;42.182;24.308;2022-10-20T08:21:53;99820.50;;;19.72;43.17
27840;BME280;15207;42.182;24.308;2022-10-20T08:24:19;99823.38;;;19.53;43.75
27840;BME280;15207;42.182;24.308;2022-10-20T08:26:45;99822.72;;;19.68;43.34
27840;BME280;15207;42.182;24.308;2022-10-20T08:29:10;99824.41;;;19.61;43.51
27840;BME280;15207;42.182;24.308;2022-10-20T08:31:37;99807.25;;;19.85;42.88
27840;BME280;15207;42.182;24.308;2022-10-20T08:34:03;99815.94;;;20.05;43.30
27840;BME280;15207;42.182;24.308;2022-10-20T08:36:29;99809.47;;;20.23;42.79
27840;BME280;15207;42.182;24.308;2022-10-20T08:38:58;99814.38;;;20.36;43.00
27840;BME280;15207;42.182;24.308;2022-10-20T08:41:31;99807.94;;;20.29;42.30
27840;BME280;15207;42.182;24.308;2022-10-20T08:43:59;99808.28;;;20.26;41.71
27840;BME280;15207;42.182;24.308;2022-10-20T08:46:29;99804.19;;;20.30;42.10
27840;BME280;15207;42.182;24.308;2022-10-20T08:48:57;99806.69;;;20.56;41.89
27840;BME280;15207;42.182;24.308;2022-10-20T08:51:24;99806.31;;;20.59;40.64
27840;BME280;15207;42.182;24.308;2022-10-20T08:53:54;99810.00;;;20.75;41.48
27840;BME280;15207;42.182;24.308;2022-10-20T08:56:23;99803.22;;;20.71;40.88
27840;BME280;15207;42.182;24.308;2022-10-20T08:58:51;99807.41;;;20.82;40.43
27840;BME280;15207;42.182;24.308;2022-10-20T09:01:23;99806.56;;;20.90;40.38
27840;BME280;15207;42.182;24.308;2022-10-20T09:03:51;99801.88;;;21.15;39.79
27840;BME280;15207;42.182;24.308;2022-10-20T09:06:19;99797.31;;;21.07;38.83
27840;BME280;15207;42.182;24.308;2022-10-20T09:09:03;99794.66;;;21.22;39.17
27840;BME280;15207;42.182;24.308;2022-10-20T09:11:29;99794.78;;;21.29;39.46
27840;BME280;15207;42.182;24.308;2022-10-20T09:13:59;99796.78;;;21.35;39.26
27840;BME280;15207;42.182;24.308;2022-10-20T09:16:27;99796.63;;;21.37;39.02
27840;BME280;15207;42.182;24.308;2022-10-20T09:18:58;99802.75;;;21.39;38.77
27840;BME280;15207;42.182;24.308;2022-10-20T09:21:25;99807.78;;;21.50;38.71
27840;BME280;15207;42.182;24.308;2022-10-20T09:23:55;99803.56;;;21.39;38.35
27840;BME280;15207;42.182;24.308;2022-10-20T09:26:35;99799.94;;;21.47;37.26
27840;BME280;15207;42.182;24.308;2022-10-20T09:31:48;99794.03;;;21.44;36.80
27840;BME280;15207;42.182;24.308;2022-10-20T09:34:32;99794.50;;;21.47;37.51
27840;BME280;15207;42.182;24.308;2022-10-20T09:37:07;99797.44;;;21.69;37.80
27840;BME280;15207;42.182;24.308;2022-10-20T09:39:52;99794.94;;;21.83;37.64
27840;BME280;15207;42.182;24.308;2022-10-20T09:42:24;99785.25;;;21.80;36.18
27840;BME280;15207;42.182;24.308;2022-10-20T09:47:21;99789.38;;;21.76;36.72
27840;BME280;15207;42.182;24.308;2022-10-20T09:49:53;99790.81;;;21.87;35.99
27840;BME280;15207;42.182;24.308;2022-10-20T09:52:23;99789.19;;;21.77;35.82
27840;BME280;15207;42.182;24.308;2022-10-20T09:54:54;99787.69;;;21.75;36.76
27840;BME280;15207;42.182;24.308;2022-10-20T09:57:21;99783.13;;;21.67;36.14
27840;BME280;15207;42.182;24.308;2022-10-20T09:59:49;99780.06;;;21.47;36.46
27840;BME280;15207;42.182;24.308;2022-10-20T10:04:45;99777.25;;;21.78;36.49
27840;BME280;15207;42.182;24.308;2022-10-20T10:12:23;99779.97;;;22.02;36.60
27840;BME280;15207;42.182;24.308;2022-10-20T10:14:53;99779.56;;;22.05;36.90
27840;BME280;15207;42.182;24.308;2022-10-20T10:17:29;99772.72;;;22.09;36.89
27840;BME280;15207;42.182;24.308;2022-10-20T10:19:54;99771.63;;;22.18;36.53
27840;BME280;15207;42.182;24.308;2022-10-20T10:22:20;99773.69;;;22.31;36.79
27840;BME280;15207;42.182;24.308;2022-10-20T10:24:47;99772.53;;;22.11;36.07
27840;BME280;15207;42.182;24.308;2022-10-20T10:27:21;99767.84;;;22.04;36.38
27840;BME280;15207;42.182;24.308;2022-10-20T10:29:49;99769.06;;;22.17;36.12
27840;BME280;15207;42.182;24.308;2022-10-20T10:37:32;99747.31;;;22.09;35.94
27840;BME280;15207;42.182;24.308;2022-10-20T10:39:58;99744.63;;;22.24;36.02
27840;BME280;15207;42.182;24.308;2022-10-20T10:48:37;99758.84;;;21.80;34.89
27840;BME280;15207;42.182;24.308;2022-10-20T10:54:01;99749.41;;;22.06;34.96
27840;BME280;15207;42.182;24.308;2022-10-20T11:10:03;99730.78;;;22.10;34.42
27840;BME280;15207;42.182;24.308;2022-10-20T11:26:01;99719.91;;;22.55;33.45
27840;BME280;15207;42.182;24.308;2022-10-20T11:28:36;99712.66;;;22.48;33.73
27840;BME280;15207;42.182;24.308;2022-10-20T11:33:55;99700.13;;;22.38;33.47
27840;BME280;15207;42.182;24.308;2022-10-20T11:36:23;99710.47;;;21.98;34.41
27840;BME280;15207;42.182;24.308;2022-10-20T11:38:51;99710.00;;;22.09;34.80
27840;BME280;15207;42.182;24.308;2022-10-20T11:41:47;99704.28;;;22.04;34.22
27840;BME280;15207;42.182;24.308;2022-10-20T11:44:27;99694.50;;;22.10;35.01
27840;BME280;15207;42.182;24.308;2022-10-20T11:47:09;99694.13;;;22.13;34.36
27840;BME280;15207;42.182;24.308;2022-10-20T11:49:37;99701.19;;;22.07;34.54
27840;BME280;15207;42.182;24.308;2022-10-20T11:54:59;99686.69;;;22.06;35.21
27840;BME280;15207;42.182;24.308;2022-10-20T11:57:50;99680.56;;;22.19;35.09
27840;BME280;15207;42.182;24.308;2022-10-20T12:06:09;99669.94;;;22.40;32.60
27840;BME280;15207;42.182;24.308;2022-10-20T12:19:25;99664.69;;;22.38;33.16
27840;BME280;15207;42.182;24.308;2022-10-20T12:21:59;99650.34;;;22.51;32.68
27840;BME280;15207;42.182;24.308;2022-10-20T12:37:37;99637.22;;;22.40;33.51
27840;BME280;15207;42.182;24.308;2022-10-20T12:42:33;99646.97;;;22.49;33.03
27840;BME280;15207;42.182;24.308;2022-10-20T12:45:24;99639.09;;;22.39;33.29
27840;BME280;15207;42.182;24.308;2022-10-20T12:47:57;99640.03;;;22.31;33.54
27840;BME280;15207;42.182;24.308;2022-10-20T12:50:37;99647.19;;;22.32;33.24
27840;BME280;15207;42.182;24.308;2022-10-20T12:56:09;99639.03;;;22.02;33.33
27840;BME280;15207;42.182;24.308;2022-10-20T12:58:37;99644.00;;;21.84;33.95
27840;BME280;15207;42.182;24.308;2022-10-20T13:01:07;99640.34;;;21.76;33.42
27840;BME280;15207;42.182;24.308;2022-10-20T13:05:59;99642.03;;;21.92;34.40
27840;BME280;15207;42.182;24.308;2022-10-20T13:08:27;99638.56;;;21.99;34.12
27840;BME280;15207;42.182;24.308;2022-10-20T13:10:54;99648.81;;;21.97;33.83
27840;BME280;15207;42.182;24.308;2022-10-20T13:15:52;99648.16;;;21.95;33.57
27840;BME280;15207;42.182;24.308;2022-10-20T13:18:28;99649.19;;;21.93;33.77
27840;BME280;15207;42.182;24.308;2022-10-20T13:23:32;99650.13;;;21.86;33.53
27840;BME280;15207;42.182;24.308;2022-10-20T13:28:57;99653.78;;;21.93;33.11
27840;BME280;15207;42.182;24.308;2022-10-20T13:39:21;99662.72;;;22.02;34.37
27840;BME280;15207;42.182;24.308;2022-10-20T13:42:22;99654.72;;;22.00;33.71
27840;BME280;15207;42.182;24.308;2022-10-20T13:50:32;99668.63;;;21.75;34.99
27840;BME280;15207;42.182;24.308;2022-10-20T13:53:08;99672.78;;;21.63;34.75
27840;BME280;15207;42.182;24.308;2022-10-20T14:01:22;99664.19;;;21.36;35.00
27840;BME280;15207;42.182;24.308;2022-10-20T14:03:49;99666.34;;;21.40;35.06
27840;BME280;15207;42.182;24.308;2022-10-20T14:06:45;99666.56;;;21.39;34.50
27840;BME280;15207;42.182;24.308;2022-10-20T14:09:16;99658.75;;;21.36;35.58
27840;BME280;15207;42.182;24.308;2022-10-20T14:11:49;99663.97;;;21.22;34.59
27840;BME280;15207;42.182;24.308;2022-10-20T14:14:20;99666.63;;;21.31;34.41
27840;BME280;15207;42.182;24.308;2022-10-20T14:16:51;99666.63;;;21.31;34.50
27840;BME280;15207;42.182;24.308;2022-10-20T14:19:19;99668.88;;;21.27;34.77
27840;BME280;15207;42.182;24.308;2022-10-20T14:21:48;99662.38;;;21.28;34.72
27840;BME280;15207;42.182;24.308;2022-10-20T14:24:39;99660.19;;;21.23;35.36
27840;BME280;15207;42.182;24.308;2022-10-20T14:27:12;99663.31;;;21.20;35.58
27840;BME280;15207;42.182;24.308;2022-10-20T14:29:39;99670.50;;;21.13;36.01
27840;BME280;15207;42.182;24.308;2022-10-20T14:32:05;99666.25;;;21.10;36.11
27840;BME280;15207;42.182;24.308;2022-10-20T14:34:36;99665.66;;;21.00;36.47
27840;BME280;15207;42.182;24.308;2022-10-20T14:37:23;99670.78;;;20.95;36.64
27840;BME280;15207;42.182;24.308;2022-10-20T14:39:50;99665.44;;;20.86;37.35
27840;BME280;15207;42.182;24.308;2022-10-20T14:42:21;99667.28;;;20.78;37.38
27840;BME280;15207;42.182;24.308;2022-10-20T14:44:49;99670.56;;;20.73;37.66
27840;BME280;15207;42.182;24.308;2022-10-20T14:47:15;99668.25;;;20.61;38.19
27840;BME280;15207;42.182;24.308;2022-10-20T14:49:47;99672.38;;;20.49;38.23
27840;BME280;15207;42.182;24.308;2022-10-20T14:54:42;99672.09;;;20.35;39.08
27840;BME280;15207;42.182;24.308;2022-10-20T14:59:54;99668.81;;;20.17;40.46
27840;BME280;15207;42.182;24.308;2022-10-20T15:07:55;99681.59;;;19.83;41.51
27840;BME280;15207;42.182;24.308;2022-10-20T15:10:24;99684.34;;;19.75;41.78
27840;BME280;15207;42.182;24.308;2022-10-20T15:12:51;99682.16;;;19.62;42.01
27840;BME280;15207;42.182;24.308;2022-10-20T15:25:29;99695.66;;;19.03;43.36
27840;BME280;15207;42.182;24.308;2022-10-20T15:27:55;99693.75;;;18.87;43.71
27840;BME280;15207;42.182;24.308;2022-10-20T15:30:23;99700.38;;;18.76;43.63
27840;BME280;15207;42.182;24.308;2022-10-20T15:32:49;99703.75;;;18.70;44.43
27840;BME280;15207;42.182;24.308;2022-10-20T15:35:18;99700.81;;;18.55;44.58
27840;BME280;15207;42.182;24.308;2022-10-20T15:37:48;99708.16;;;18.36;44.89
27840;BME280;15207;42.182;24.308;2022-10-20T15:40:14;99712.16;;;18.16;45.93
27840;BME280;15207;42.182;24.308;2022-10-20T15:42:40;99707.44;;;18.00;46.10
27840;BME280;15207;42.182;24.308;2022-10-20T15:45:33;99716.19;;;17.85;44.86
27840;BME280;15207;42.182;24.308;2022-10-20T15:47:59;99719.19;;;17.82;44.04
27840;BME280;15207;42.182;24.308;2022-10-20T15:50:24;99731.47;;;17.68;43.98